Time;durP1;ratioP1;P1;durP2;ratioP2;P2;SDS_P1;SDS_P2;PMS_P1;PMS_P2;Temp;Humidity;BMP_temperature;BMP_pressure;BME280_temperature;BME280_humidity;BME280_pressure;Samples;Min_cycle;Max_cycle;Signal;HPM_P1;HPM_P2
2021/11/14 00:00:09;;;;;;;;;;;;;;;;;;348310;28;849;-78
2021/11/14 00:00:25;;;;;;;;;;;;;;;;;;346934;28;837;-78
2021/11/14 00:00:38;;;;;;;;;;;;;;;;;;347015;28;956;-78
2021/11/14 00:01:06;;;;;;;;;;;;;;;;;;346942;28;931;-78
2021/11/14 00:01:17;;;;;;;;;;;;;;;;;;351209;28;1038;-78
2021/11/14 00:01:54;;;;;;;;;;;;;;;;;;351094;28;903;-78
2021/11/14 00:02:05;;;;;;;;;;;;;;;;;;351178;28;967;-78
2021/11/14 00:02:15;;;;;;;;;;;;;;;;;;351808;28;817;-78
2021/11/14 00:02:26;;;;;;;;;;;;;;;;;;352679;28;834;-78
2021/11/14 00:02:52;;;;;;;;;;;;;;;;;;352686;28;829;-79
2021/11/14 00:03:03;;;;;;;;;;;;;;;;;;352697;28;964;-78
2021/11/14 00:03:14;;;;;;;;;;;;;;;;;;352749;28;864;-78
2021/11/14 00:03:43;;;;;;;;;;;;;;;;;;352737;28;884;-78
2021/11/14 00:03:53;;;;;;;;;;;;;;;;;;352663;28;812;-78
2021/11/14 00:04:04;;;;;;;;;;;;;;;;;;352564;28;902;-78
2021/11/14 00:04:17;;;;;;;;;;;;;;;;;;352663;28;1148;-78
2021/11/14 00:04:53;;;;;;;;;;;;;;;;;;352685;28;897;-78
2021/11/14 00:05:05;;;;;;;;;;;;;;;;;;352706;28;829;-78
2021/11/14 00:05:21;;;;;;;;;;;;;;;;;;352554;28;934;-78
2021/11/14 00:05:32;;;;;;;;;;;;;;;;;;352639;28;908;-78
2021/11/14 00:05:43;;;;;;;;;;;;;;;;;;352744;28;864;-78
2021/11/14 00:05:53;;;;;;;;;;;;;;;;;;352610;28;920;-78
2021/11/14 00:06:04;;;;;;;;;;;;;;;;;;352665;28;769;-78
2021/11/14 00:06:16;;;;;;;;;;;;;;;;;;352527;28;904;-78
2021/11/14 00:06:26;;;;;;;;;;;;;;;;;;352569;28;1022;-78
2021/11/14 00:06:37;;;;;;;;;;;;;;;;;;352589;28;916;-78
2021/11/14 00:06:48;;;;;;;;;;;;;;;;;;352660;28;896;-78
2021/11/14 00:07:18;;;;;;;;;;;;;;;;;;352625;28;947;-78
2021/11/14 00:07:29;;;;;;;;;;;;;;;;;;351167;28;963;-78
2021/11/14 00:07:39;;;;;;;;;;;;;;;;;;351109;28;932;-77
2021/11/14 00:07:50;;;;;;;;;;;;;;;;;;352060;28;1109;-78
2021/11/14 00:08:00;;;;;;;;;;;;;;;;;;352727;28;959;-78
2021/11/14 00:08:13;;;;;;;;;;;;;;;;;;352697;28;904;-78
2021/11/14 00:08:23;;;;;;;;;;;;;;;;;;352701;28;960;-78
2021/11/14 00:08:34;;;;;;;;;;;;;;;;;;352579;28;812;-78
2021/11/14 00:08:44;;;;;;;;;;;;;;;;;;352683;28;1030;-79
2021/11/14 00:08:55;;;;;;;;;;;;;;;;;;352655;28;979;-78
2021/11/14 00:09:05;;;;;;;;;;;;;;;;;;352681;28;754;-78
2021/11/14 00:09:16;;;;;;;;;;;;;;;;;;352700;28;959;-78
2021/11/14 00:09:28;;;;;;;;;;;;;;;;;;352643;28;968;-78
2021/11/14 00:09:41;;;;;;;;;;;;;;;;;;352610;28;829;-78
2021/11/14 00:09:51;;;;;;;;;;;;;;;;;;352619;28;903;-78
2021/11/14 00:10:03;;;;;;;;;;;;;;;;;;352629;28;1167;-78
2021/11/14 00:10:13;;;;;;;;;;;;;;;;;;352592;28;895;-78
2021/11/14 00:10:24;;;;;;;;;;;;;;;;;;352478;28;896;-78
2021/11/14 00:10:42;;;;;;;;;;;;;;;;;;352508;28;1015;-78
2021/11/14 00:10:55;;;;;;;;;;;;;;;;;;352597;28;812;-78
2021/11/14 00:12:09;;;;;;;;;;;;;;;;;;352691;28;821;-78
2021/11/14 00:12:19;;;;;;;;;;;;;;;;;;352766;28;836;-78
2021/11/14 00:12:29;;;;;;;;;;;;;;;;;;352318;28;969;-78
2021/11/14 00:12:40;;;;;;;;;;;;;;;;;;353459;28;1456;-78
2021/11/14 00:12:50;;;;;;;;;;;;;;;;;;354027;28;865;-78
2021/11/14 00:13:21;;;;;;;;;;;;;;;;;;349797;28;1071;-78
2021/11/14 00:14:47;;;;;;;;;;;;;;;;;;352567;28;884;-78
2021/11/14 00:14:57;;;;;;;;;;;;;;;;;;352653;28;872;-78
2021/11/14 00:15:08;;;;;;;;;;;;;;;;;;352567;28;852;-78
2021/11/14 00:15:19;;;;;;;;;;;;;;;;;;352441;28;968;-78
2021/11/14 00:15:29;;;;;;;;;;;;;;;;;;353386;28;801;-78
2021/11/14 00:16:10;;;;;;;;;;;;;;;;;;354039;28;994;-78
2021/11/14 00:16:24;;;;;;;;;;;;;;;;;;352617;28;805;-78
2021/11/14 00:16:35;;;;;;;;;;;;;;;;;;352603;28;964;-78
2021/11/14 00:17:11;;;;;;;;;;;;;;;;;;352569;28;927;-78
2021/11/14 00:17:21;;;;;;;;;;;;;;;;;;352573;28;813;-78
2021/11/14 00:17:33;;;;;;;;;;;;;;;;;;352562;28;824;-78
2021/11/14 00:17:44;;;;;;;;;;;;;;;;;;352646;28;1232;-78
2021/11/14 00:17:54;;;;;;;;;;;;;;;;;;352602;28;832;-78
2021/11/14 00:18:05;;;;;;;;;;;;;;;;;;352593;28;960;-78
2021/11/14 00:18:16;;;;;;;;;;;;;;;;;;353128;28;838;-78
2021/11/14 00:18:26;;;;;;;;;;;;;;;;;;354103;28;841;-78
2021/11/14 00:19:04;;;;;;;;;;;;;;;;;;354088;28;880;-78
2021/11/14 00:19:15;;;;;;;;;;;;;;;;;;354127;28;833;-78
2021/11/14 00:19:36;;;;;;;;;;;;;;;;;;354111;28;774;-79
2021/11/14 00:20:12;;;;;;;;;;;;;;;;;;354077;28;860;-78
2021/11/14 00:20:23;;;;;;;;;;;;;;;;;;354025;28;995;-78
2021/11/14 00:20:34;;;;;;;;;;;;;;;;;;353983;28;918;-78
2021/11/14 00:21:11;;;;;;;;;;;;;;;;;;354082;28;1020;-78
2021/11/14 00:21:23;;;;;;;;;;;;;;;;;;354036;28;809;-78
2021/11/14 00:21:35;;;;;;;;;;;;;;;;;;354136;28;1014;-79
2021/11/14 00:21:45;;;;;;;;;;;;;;;;;;354083;28;983;-78
2021/11/14 00:21:56;;;;;;;;;;;;;;;;;;353985;28;565;-78
2021/11/14 00:22:07;;;;;;;;;;;;;;;;;;352602;28;817;-78
2021/11/14 00:22:18;;;;;;;;;;;;;;;;;;352590;28;932;-79
2021/11/14 00:22:28;;;;;;;;;;;;;;;;;;352565;28;877;-79
2021/11/14 00:22:38;;;;;;;;;;;;;;;;;;352599;28;915;-78
2021/11/14 00:22:49;;;;;;;;;;;;;;;;;;352627;28;936;-78
2021/11/14 00:23:03;;;;;;;;;;;;;;;;;;352604;28;1007;-78
2021/11/14 00:24:05;;;;;;;;;;;;;;;;;;353625;28;870;-78
2021/11/14 00:24:16;;;;;;;;;;;;;;;;;;354022;28;1034;-78
2021/11/14 00:24:42;;;;;;;;;;;;;;;;;;354167;28;809;-78
2021/11/14 00:24:55;;;;;;;;;;;;;;;;;;354086;28;986;-78
2021/11/14 00:25:06;;;;;;;;;;;;;;;;;;352535;28;1130;-78
2021/11/14 00:25:18;;;;;;;;;;;;;;;;;;352555;28;999;-79
2021/11/14 00:25:28;;;;;;;;;;;;;;;;;;352498;28;1035;-78
2021/11/14 00:25:39;;;;;;;;;;;;;;;;;;352498;28;856;-79
2021/11/14 00:25:49;;;;;;;;;;;;;;;;;;352605;28;809;-78
2021/11/14 00:25:59;;;;;;;;;;;;;;;;;;352545;28;809;-78
2021/11/14 00:26:10;;;;;;;;;;;;;;;;;;352581;28;880;-78
2021/11/14 00:26:21;;;;;;;;;;;;;;;;;;352513;28;971;-78
2021/11/14 00:26:31;;;;;;;;;;;;;;;;;;352617;28;825;-78
2021/11/14 00:26:42;;;;;;;;;;;;;;;;;;352601;28;974;-78
2021/11/14 00:27:08;;;;;;;;;;;;;;;;;;352541;28;1210;-78
2021/11/14 00:27:18;;;;;;;;;;;;;;;;;;354127;28;900;-78
2021/11/14 00:27:29;;;;;;;;;;;;;;;;;;354086;28;1154;-78
2021/11/14 00:27:40;;;;;;;;;;;;;;;;;;354082;28;923;-78
2021/11/14 00:27:51;;;;;;;;;;;;;;;;;;352473;28;1214;-78
2021/11/14 00:28:02;;;;;;;;;;;;;;;;;;351119;28;1160;-78
2021/11/14 00:28:13;;;;;;;;;;;;;;;;;;351216;28;975;-78
2021/11/14 00:29:16;;;;;;;;;;;;;;;;;;351226;28;855;-78
2021/11/14 00:29:27;;;;;;;;;;;;;;;;;;351138;28;936;-78
2021/11/14 00:29:37;;;;;;;;;;;;;;;;;;351204;28;995;-78
2021/11/14 00:29:49;;;;;;;;;;;;;;;;;;351897;28;912;-78
2021/11/14 00:30:18;;;;;;;;;;;;;;;;;;353442;28;988;-78
2021/11/14 00:30:29;;;;;;;;;;;;;;;;;;353959;28;964;-78
2021/11/14 00:30:42;;;;;;;;;;;;;;;;;;353987;28;1235;-78
2021/11/14 00:31:11;;;;;;;;;;;;;;;;;;354064;28;927;-78
2021/11/14 00:31:22;;;;;;;;;;;;;;;;;;354086;28;1022;-78
2021/11/14 00:31:32;;;;;;;;;;;;;;;;;;354121;28;995;-78
2021/11/14 00:31:42;;;;;;;;;;;;;;;;;;354107;28;975;-78
2021/11/14 00:32:12;;;;;;;;;;;;;;;;;;354185;28;720;-78
2021/11/14 00:32:23;;;;;;;;;;;;;;;;;;354125;28;817;-78
2021/11/14 00:33:00;;;;;;;;;;;;;;;;;;353974;28;809;-78
2021/11/14 00:33:12;;;;;;;;;;;;;;;;;;354081;27;984;-78
2021/11/14 00:33:22;;;;;;;;;;;;;;;;;;354168;28;868;-78
2021/11/14 00:33:33;;;;;;;;;;;;;;;;;;354132;28;840;-78
2021/11/14 00:33:44;;;;;;;;;;;;;;;;;;354140;28;967;-78
2021/11/14 00:33:55;;;;;;;;;;;;;;;;;;354126;28;840;-78
2021/11/14 00:34:05;;;;;;;;;;;;;;;;;;354296;27;1013;-78
2021/11/14 00:34:16;;;;;;;;;;;;;;;;;;354368;27;1059;-78
2021/11/14 00:34:28;;;;;;;;;;;;;;;;;;354355;27;1018;-78
2021/11/14 00:34:38;;;;;;;;;;;;;;;;;;354381;27;983;-78
2021/11/14 00:34:51;;;;;;;;;;;;;;;;;;354304;27;1197;-78
2021/11/14 00:35:03;;;;;;;;;;;;;;;;;;354323;27;987;-78
2021/11/14 00:35:55;;;;;;;;;;;;;;;;;;354162;27;1981;-78
2021/11/14 00:36:32;;;;;;;;;;;;;;;;;;354333;27;844;-78
2021/11/14 00:36:43;;;;;;;;;;;;;;;;;;352850;28;899;-78
2021/11/14 00:36:54;;;;;;;;;;;;;;;;;;352897;28;944;-78
2021/11/14 00:37:06;;;;;;;;;;;;;;;;;;352830;28;833;-78
2021/11/14 00:37:42;;;;;;;;;;;;;;;;;;352839;28;944;-78
2021/11/14 00:37:55;;;;;;;;;;;;;;;;;;352865;28;817;-78
2021/11/14 00:38:32;;;;;;;;;;;;;;;;;;352862;28;844;-78
2021/11/14 00:38:43;;;;;;;;;;;;;;;;;;352571;28;909;-78
2021/11/14 00:38:53;;;;;;;;;;;;;;;;;;351309;28;1845;-78
2021/11/14 00:39:08;;;;;;;;;;;;;;;;;;351464;28;932;-78
2021/11/14 00:39:18;;;;;;;;;;;;;;;;;;351459;28;924;-78
2021/11/14 00:39:29;;;;;;;;;;;;;;;;;;351480;28;872;-78
2021/11/14 00:39:39;;;;;;;;;;;;;;;;;;351321;28;960;-78
2021/11/14 00:39:49;;;;;;;;;;;;;;;;;;351438;28;979;-78
2021/11/14 00:40:00;;;;;;;;;;;;;;;;;;351421;28;903;-78
2021/11/14 00:40:16;;;;;;;;;;;;;;;;;;351543;28;849;-78
2021/11/14 00:40:28;;;;;;;;;;;;;;;;;;351466;28;924;-77
2021/11/14 00:40:39;;;;;;;;;;;;;;;;;;352203;28;860;-78
2021/11/14 00:40:49;;;;;;;;;;;;;;;;;;353428;28;1123;-78
2021/11/14 00:41:07;;;;;;;;;;;;;;;;;;354343;27;809;-78
2021/11/14 00:41:45;;;;;;;;;;;;;;;;;;354334;27;943;-78
2021/11/14 00:42:11;;;;;;;;;;;;;;;;;;354263;27;911;-78
2021/11/14 00:42:21;;;;;;;;;;;;;;;;;;354408;27;1044;-78
2021/11/14 00:42:32;;;;;;;;;;;;;;;;;;354377;27;813;-78
2021/11/14 00:42:42;;;;;;;;;;;;;;;;;;354354;27;813;-78
2021/11/14 00:42:54;;;;;;;;;;;;;;;;;;352755;28;1265;-78
2021/11/14 00:43:05;;;;;;;;;;;;;;;;;;352888;28;911;-78
2021/11/14 00:43:15;;;;;;;;;;;;;;;;;;352830;28;816;-78
2021/11/14 00:43:26;;;;;;;;;;;;;;;;;;352843;28;1034;-78
2021/11/14 00:43:37;;;;;;;;;;;;;;;;;;352894;28;916;-78
2021/11/14 00:43:48;;;;;;;;;;;;;;;;;;352886;28;1018;-78
2021/11/14 00:44:09;;;;;;;;;;;;;;;;;;352737;28;916;-78
2021/11/14 00:44:35;;;;;;;;;;;;;;;;;;352793;28;809;-78
2021/11/14 00:45:01;;;;;;;;;;;;;;;;;;353137;27;809;-78
2021/11/14 00:45:40;;;;;;;;;;;;;;;;;;354307;27;995;-78
2021/11/14 00:45:50;;;;;;;;;;;;;;;;;;354245;27;1334;-78
2021/11/14 00:46:30;;;;;;;;;;;;;;;;;;354317;27;892;-78
2021/11/14 00:46:43;;;;;;;;;;;;;;;;;;354344;27;928;-78
2021/11/14 00:46:54;;;;;;;;;;;;;;;;;;354365;27;1011;-78
2021/11/14 00:47:05;;;;;;;;;;;;;;;;;;354284;27;980;-78
2021/11/14 00:47:15;;;;;;;;;;;;;;;;;;354386;27;1237;-78
2021/11/14 00:47:26;;;;;;;;;;;;;;;;;;354316;27;824;-78
2021/11/14 00:47:37;;;;;;;;;;;;;;;;;;354351;27;900;-78
2021/11/14 00:47:48;;;;;;;;;;;;;;;;;;352817;28;1066;-78
2021/11/14 00:48:00;;;;;;;;;;;;;;;;;;352815;28;992;-78
2021/11/14 00:48:12;;;;;;;;;;;;;;;;;;352951;28;860;-78
2021/11/14 00:49:44;;;;;;;;;;;;;;;;;;351925;28;869;-78
2021/11/14 00:49:54;;;;;;;;;;;;;;;;;;351502;28;793;-78
2021/11/14 00:50:10;;;;;;;;;;;;;;;;;;351499;28;833;-78
2021/11/14 00:50:20;;;;;;;;;;;;;;;;;;352295;28;794;-78
2021/11/14 00:50:31;;;;;;;;;;;;;;;;;;352815;28;1046;-78
2021/11/14 00:50:45;;;;;;;;;;;;;;;;;;352724;28;923;-78
2021/11/14 00:51:11;;;;;;;;;;;;;;;;;;352706;28;1003;-78
2021/11/14 00:51:28;;;;;;;;;;;;;;;;;;352843;28;840;-78
2021/11/14 00:51:39;;;;;;;;;;;;;;;;;;352843;28;991;-78
2021/11/14 00:51:55;;;;;;;;;;;;;;;;;;353405;27;1075;-78
2021/11/14 00:52:06;;;;;;;;;;;;;;;;;;354345;27;991;-78
2021/11/14 00:52:16;;;;;;;;;;;;;;;;;;354384;27;911;-77
2021/11/14 00:52:26;;;;;;;;;;;;;;;;;;354326;27;975;-78
2021/11/14 00:52:41;;;;;;;;;;;;;;;;;;354372;27;883;-78
2021/11/14 00:53:20;;;;;;;;;;;;;;;;;;354358;27;968;-78
2021/11/14 00:53:31;;;;;;;;;;;;;;;;;;354383;27;820;-79
2021/11/14 00:53:41;;;;;;;;;;;;;;;;;;354358;27;868;-78
2021/11/14 00:53:52;;;;;;;;;;;;;;;;;;354325;27;987;-78
2021/11/14 00:54:03;;;;;;;;;;;;;;;;;;354320;27;995;-78
2021/11/14 00:54:14;;;;;;;;;;;;;;;;;;354340;27;1157;-78
2021/11/14 00:54:24;;;;;;;;;;;;;;;;;;354424;27;861;-78
2021/11/14 00:54:35;;;;;;;;;;;;;;;;;;354331;27;1042;-79
2021/11/14 00:54:45;;;;;;;;;;;;;;;;;;354319;27;1019;-79
2021/11/14 00:54:56;;;;;;;;;;;;;;;;;;354338;27;789;-79
2021/11/14 00:55:07;;;;;;;;;;;;;;;;;;354290;27;995;-78
2021/11/14 00:55:19;;;;;;;;;;;;;;;;;;354255;27;1006;-78
2021/11/14 00:55:35;;;;;;;;;;;;;;;;;;354422;27;769;-78
2021/11/14 00:55:46;;;;;;;;;;;;;;;;;;354308;27;1889;-78
2021/11/14 00:55:57;;;;;;;;;;;;;;;;;;354264;27;975;-78
2021/11/14 00:56:08;;;;;;;;;;;;;;;;;;354220;27;829;-78
2021/11/14 00:56:44;;;;;;;;;;;;;;;;;;354341;27;943;-78
2021/11/14 00:56:54;;;;;;;;;;;;;;;;;;354382;27;441;-78
2021/11/14 00:57:04;;;;;;;;;;;;;;;;;;354372;27;978;-78
2021/11/14 00:57:15;;;;;;;;;;;;;;;;;;354333;27;895;-78
2021/11/14 00:57:25;;;;;;;;;;;;;;;;;;354178;27;845;-78
2021/11/14 00:57:36;;;;;;;;;;;;;;;;;;354313;27;979;-78
2021/11/14 00:57:46;;;;;;;;;;;;;;;;;;354393;27;1119;-78
2021/11/14 00:57:57;;;;;;;;;;;;;;;;;;354377;27;865;-78
2021/11/14 00:58:08;;;;;;;;;;;;;;;;;;354403;27;974;-78
2021/11/14 00:58:18;;;;;;;;;;;;;;;;;;354345;27;1031;-78
2021/11/14 00:58:29;;;;;;;;;;;;;;;;;;354308;27;940;-78
2021/11/14 00:58:40;;;;;;;;;;;;;;;;;;354371;27;805;-79
2021/11/14 00:58:50;;;;;;;;;;;;;;;;;;352825;28;892;-78
2021/11/14 00:59:01;;;;;;;;;;;;;;;;;;351392;28;972;-78
2021/11/14 00:59:11;;;;;;;;;;;;;;;;;;351492;28;820;-78
2021/11/14 00:59:22;;;;;;;;;;;;;;;;;;351429;28;821;-78
2021/11/14 00:59:32;;;;;;;;;;;;;;;;;;351412;28;998;-78
2021/11/14 00:59:43;;;;;;;;;;;;;;;;;;351320;28;1030;-78
2021/11/14 00:59:53;;;;;;;;;;;;;;;;;;351426;28;1246;-78
2021/11/14 01:00:09;;;;;;;;;;;;;;;;;;351428;28;805;-78
2021/11/14 01:00:22;;;;;;;;;;;;;;;;;;351398;28;1015;-78
2021/11/14 01:00:33;;;;;;;;;;;;;;;;;;351429;28;900;-78
2021/11/14 01:01:09;;;;;;;;;;;;;;;;;;354218;27;832;-78
2021/11/14 01:01:20;;;;;;;;;;;;;;;;;;354342;27;868;-78
2021/11/14 01:01:31;;;;;;;;;;;;;;;;;;354333;27;833;-78
2021/11/14 01:01:41;;;;;;;;;;;;;;;;;;354382;27;813;-78
2021/11/14 01:01:52;;;;;;;;;;;;;;;;;;354246;27;1174;-78
2021/11/14 01:02:02;;;;;;;;;;;;;;;;;;354280;27;789;-78
2021/11/14 01:02:12;;;;;;;;;;;;;;;;;;354348;27;868;-78
2021/11/14 01:02:26;;;;;;;;;;;;;;;;;;354330;27;932;-78
2021/11/14 01:02:37;;;;;;;;;;;;;;;;;;354343;27;1024;-78
2021/11/14 01:03:03;;;;;;;;;;;;;;;;;;354230;28;932;-78
2021/11/14 01:03:43;;;;;;;;;;;;;;;;;;354294;27;852;-78
2021/11/14 01:03:53;;;;;;;;;;;;;;;;;;354296;27;884;-78
2021/11/14 01:04:04;;;;;;;;;;;;;;;;;;354227;27;583;-78
2021/11/14 01:04:14;;;;;;;;;;;;;;;;;;354275;27;999;-78
2021/11/14 01:04:25;;;;;;;;;;;;;;;;;;354320;27;1003;-78
2021/11/14 01:05:01;;;;;;;;;;;;;;;;;;354274;27;1017;-78
2021/11/14 01:05:12;;;;;;;;;;;;;;;;;;354293;27;1026;-78
2021/11/14 01:05:23;;;;;;;;;;;;;;;;;;354331;27;999;-78
2021/11/14 01:05:34;;;;;;;;;;;;;;;;;;354369;27;836;-78
2021/11/14 01:05:45;;;;;;;;;;;;;;;;;;354370;27;995;-78
2021/11/14 01:05:55;;;;;;;;;;;;;;;;;;354357;27;1034;-78
2021/11/14 01:06:05;;;;;;;;;;;;;;;;;;352697;28;865;-78
2021/11/14 01:06:16;;;;;;;;;;;;;;;;;;352686;28;912;-78
2021/11/14 01:06:26;;;;;;;;;;;;;;;;;;352756;28;1015;-78
2021/11/14 01:07:03;;;;;;;;;;;;;;;;;;352787;28;987;-79
2021/11/14 01:07:13;;;;;;;;;;;;;;;;;;352798;28;970;-78
2021/11/14 01:07:24;;;;;;;;;;;;;;;;;;352857;28;884;-79
2021/11/14 01:07:50;;;;;;;;;;;;;;;;;;352885;28;817;-78
2021/11/14 01:08:01;;;;;;;;;;;;;;;;;;353314;27;829;-78
2021/11/14 01:08:12;;;;;;;;;;;;;;;;;;354297;27;508;-78
2021/11/14 01:08:23;;;;;;;;;;;;;;;;;;354272;27;1011;-79
2021/11/14 01:08:39;;;;;;;;;;;;;;;;;;354314;27;829;-79
2021/11/14 01:08:50;;;;;;;;;;;;;;;;;;354332;27;821;-78
2021/11/14 01:09:00;;;;;;;;;;;;;;;;;;354302;27;916;-78
2021/11/14 01:09:12;;;;;;;;;;;;;;;;;;354298;27;853;-78
2021/11/14 01:09:22;;;;;;;;;;;;;;;;;;354298;27;983;-78
2021/11/14 01:09:32;;;;;;;;;;;;;;;;;;354404;27;836;-78
2021/11/14 01:09:43;;;;;;;;;;;;;;;;;;354339;27;927;-78
2021/11/14 01:09:53;;;;;;;;;;;;;;;;;;354377;27;805;-78
2021/11/14 01:10:05;;;;;;;;;;;;;;;;;;354332;27;808;-78
2021/11/14 01:10:18;;;;;;;;;;;;;;;;;;354339;27;872;-78
2021/11/14 01:10:30;;;;;;;;;;;;;;;;;;354271;27;996;-78
2021/11/14 01:10:42;;;;;;;;;;;;;;;;;;354326;27;959;-78
2021/11/14 01:10:52;;;;;;;;;;;;;;;;;;354273;27;1022;-78
2021/11/14 01:11:03;;;;;;;;;;;;;;;;;;354315;27;567;-78
2021/11/14 01:11:40;;;;;;;;;;;;;;;;;;354344;27;1007;-78
2021/11/14 01:11:50;;;;;;;;;;;;;;;;;;354369;27;844;-78
2021/11/14 01:12:19;;;;;;;;;;;;;;;;;;354352;27;603;-78
2021/11/14 01:12:30;;;;;;;;;;;;;;;;;;354301;27;848;-78
2021/11/14 01:12:41;;;;;;;;;;;;;;;;;;353295;27;1428;-78
2021/11/14 01:12:51;;;;;;;;;;;;;;;;;;352892;28;955;-77
2021/11/14 01:13:02;;;;;;;;;;;;;;;;;;352782;28;978;-78
2021/11/14 01:13:13;;;;;;;;;;;;;;;;;;352939;28;801;-78
2021/11/14 01:13:23;;;;;;;;;;;;;;;;;;352898;28;963;-78
2021/11/14 01:13:34;;;;;;;;;;;;;;;;;;352903;28;1039;-78
2021/11/14 01:14:11;;;;;;;;;;;;;;;;;;352913;28;845;-78
2021/11/14 01:14:22;;;;;;;;;;;;;;;;;;352891;28;995;-79
2021/11/14 01:14:47;;;;;;;;;;;;;;;;;;352901;28;948;-78
2021/11/14 01:14:57;;;;;;;;;;;;;;;;;;352884;28;987;-78
2021/11/14 01:15:09;;;;;;;;;;;;;;;;;;352972;28;872;-78
2021/11/14 01:15:20;;;;;;;;;;;;;;;;;;351456;28;932;-78
2021/11/14 01:15:31;;;;;;;;;;;;;;;;;;351430;28;992;-78
2021/11/14 01:15:42;;;;;;;;;;;;;;;;;;351281;28;1996;-78
2021/11/14 01:15:53;;;;;;;;;;;;;;;;;;351382;28;968;-78
2021/11/14 01:16:31;;;;;;;;;;;;;;;;;;351357;28;971;-78
2021/11/14 01:16:41;;;;;;;;;;;;;;;;;;351394;28;923;-78
2021/11/14 01:17:04;;;;;;;;;;;;;;;;;;351423;28;901;-78
2021/11/14 01:17:16;;;;;;;;;;;;;;;;;;352015;28;829;-78
2021/11/14 01:17:26;;;;;;;;;;;;;;;;;;352795;28;876;-78
2021/11/14 01:17:39;;;;;;;;;;;;;;;;;;351248;28;705;-79
2021/11/14 01:17:50;;;;;;;;;;;;;;;;;;351360;28;852;-78
2021/11/14 01:18:16;;;;;;;;;;;;;;;;;;351410;28;837;-79
2021/11/14 01:18:26;;;;;;;;;;;;;;;;;;351492;28;884;-78
2021/11/14 01:18:36;;;;;;;;;;;;;;;;;;351458;28;809;-78
2021/11/14 01:18:47;;;;;;;;;;;;;;;;;;351384;28;944;-78
2021/11/14 01:18:57;;;;;;;;;;;;;;;;;;351357;28;885;-78
2021/11/14 01:19:33;;;;;;;;;;;;;;;;;;352090;28;932;-78
2021/11/14 01:19:45;;;;;;;;;;;;;;;;;;352813;28;876;-78
2021/11/14 01:19:57;;;;;;;;;;;;;;;;;;352935;28;980;-78
2021/11/14 01:20:08;;;;;;;;;;;;;;;;;;352879;28;987;-78
2021/11/14 01:20:20;;;;;;;;;;;;;;;;;;352839;28;944;-79
2021/11/14 01:20:33;;;;;;;;;;;;;;;;;;352892;28;971;-78
2021/11/14 01:20:44;;;;;;;;;;;;;;;;;;352847;28;1038;-78
2021/11/14 01:21:05;;;;;;;;;;;;;;;;;;352895;28;876;-78
2021/11/14 01:21:31;;;;;;;;;;;;;;;;;;352854;28;802;-78
2021/11/14 01:21:46;;;;;;;;;;;;;;;;;;352936;28;852;-78
2021/11/14 01:21:56;;;;;;;;;;;;;;;;;;352793;28;900;-78
2021/11/14 01:22:06;;;;;;;;;;;;;;;;;;352851;28;849;-79
2021/11/14 01:22:17;;;;;;;;;;;;;;;;;;352903;28;936;-78
2021/11/14 01:22:27;;;;;;;;;;;;;;;;;;352897;28;1063;-78
2021/11/14 01:22:47;;;;;;;;;;;;;;;;;;352906;28;860;-78
2021/11/14 01:22:58;;;;;;;;;;;;;;;;;;352873;28;1003;-78
2021/11/14 01:23:10;;;;;;;;;;;;;;;;;;352885;28;662;-78
2021/11/14 01:23:21;;;;;;;;;;;;;;;;;;351397;28;864;-78
2021/11/14 01:23:47;;;;;;;;;;;;;;;;;;351384;28;908;-79
2021/11/14 01:23:59;;;;;;;;;;;;;;;;;;351394;28;829;-79
2021/11/14 01:24:10;;;;;;;;;;;;;;;;;;351292;28;869;-78
2021/11/14 01:24:20;;;;;;;;;;;;;;;;;;351416;28;821;-78
2021/11/14 01:24:30;;;;;;;;;;;;;;;;;;351324;28;939;-78
2021/11/14 01:24:41;;;;;;;;;;;;;;;;;;349889;28;1458;-78
2021/11/14 01:24:52;;;;;;;;;;;;;;;;;;349983;28;774;-78
2021/11/14 01:25:03;;;;;;;;;;;;;;;;;;350007;28;837;-78
2021/11/14 01:25:14;;;;;;;;;;;;;;;;;;350452;28;802;-78
2021/11/14 01:25:25;;;;;;;;;;;;;;;;;;351366;28;999;-78
2021/11/14 01:26:02;;;;;;;;;;;;;;;;;;349891;28;1216;-78
2021/11/14 01:26:38;;;;;;;;;;;;;;;;;;349832;28;944;-78
2021/11/14 01:27:08;;;;;;;;;;;;;;;;;;350056;28;588;-78
2021/11/14 01:27:18;;;;;;;;;;;;;;;;;;350035;28;849;-78
2021/11/14 01:27:28;;;;;;;;;;;;;;;;;;350160;28;916;-78
2021/11/14 01:27:39;;;;;;;;;;;;;;;;;;351454;28;832;-78
2021/11/14 01:27:50;;;;;;;;;;;;;;;;;;351339;28;976;-78
2021/11/14 01:28:13;;;;;;;;;;;;;;;;;;352397;28;770;-78
2021/11/14 01:28:23;;;;;;;;;;;;;;;;;;352889;28;860;-78
2021/11/14 01:28:34;;;;;;;;;;;;;;;;;;352789;28;841;-78
2021/11/14 01:28:44;;;;;;;;;;;;;;;;;;352872;28;963;-78
2021/11/14 01:28:55;;;;;;;;;;;;;;;;;;352867;28;1211;-78
2021/11/14 01:29:05;;;;;;;;;;;;;;;;;;352875;28;983;-78
2021/11/14 01:29:57;;;;;;;;;;;;;;;;;;352909;28;872;-78
2021/11/14 01:30:11;;;;;;;;;;;;;;;;;;351369;28;1096;-78
2021/11/14 01:30:22;;;;;;;;;;;;;;;;;;351366;28;889;-78
2021/11/14 01:30:34;;;;;;;;;;;;;;;;;;351378;28;833;-78
2021/11/14 01:30:49;;;;;;;;;;;;;;;;;;351258;28;983;-78
2021/11/14 01:30:59;;;;;;;;;;;;;;;;;;351386;28;1003;-78
2021/11/14 01:31:10;;;;;;;;;;;;;;;;;;351402;28;880;-78
2021/11/14 01:31:21;;;;;;;;;;;;;;;;;;351422;28;861;-78
2021/11/14 01:31:32;;;;;;;;;;;;;;;;;;351387;28;1042;-78
2021/11/14 01:31:42;;;;;;;;;;;;;;;;;;351296;28;797;-78
2021/11/14 01:31:53;;;;;;;;;;;;;;;;;;351296;28;793;-77
2021/11/14 01:32:03;;;;;;;;;;;;;;;;;;351953;28;979;-77
2021/11/14 01:32:14;;;;;;;;;;;;;;;;;;352867;28;837;-78
2021/11/14 01:32:24;;;;;;;;;;;;;;;;;;352875;28;947;-78
2021/11/14 01:32:34;;;;;;;;;;;;;;;;;;352930;28;820;-78
2021/11/14 01:33:12;;;;;;;;;;;;;;;;;;352810;28;944;-78
2021/11/14 01:33:35;;;;;;;;;;;;;;;;;;352880;28;919;-78
2021/11/14 01:33:46;;;;;;;;;;;;;;;;;;352893;28;1038;-78
2021/11/14 01:33:56;;;;;;;;;;;;;;;;;;352898;28;857;-78
2021/11/14 01:34:06;;;;;;;;;;;;;;;;;;352794;28;853;-77
2021/11/14 01:34:32;;;;;;;;;;;;;;;;;;352902;28;912;-78
2021/11/14 01:34:42;;;;;;;;;;;;;;;;;;352844;28;1042;-78
2021/11/14 01:34:53;;;;;;;;;;;;;;;;;;352802;28;1318;-78
2021/11/14 01:35:04;;;;;;;;;;;;;;;;;;352895;28;891;-77
2021/11/14 01:35:17;;;;;;;;;;;;;;;;;;352805;28;867;-78
2021/11/14 01:35:28;;;;;;;;;;;;;;;;;;352899;28;880;-78
2021/11/14 01:35:38;;;;;;;;;;;;;;;;;;352863;28;849;-78
2021/11/14 01:36:02;;;;;;;;;;;;;;;;;;352870;28;1909;-78
2021/11/14 01:36:12;;;;;;;;;;;;;;;;;;352823;28;980;-78
2021/11/14 01:36:36;;;;;;;;;;;;;;;;;;352884;28;789;-78
2021/11/14 01:36:46;;;;;;;;;;;;;;;;;;352780;28;1020;-78
2021/11/14 01:36:56;;;;;;;;;;;;;;;;;;352783;28;956;-78
2021/11/14 01:37:33;;;;;;;;;;;;;;;;;;351350;28;868;-78
2021/11/14 01:37:44;;;;;;;;;;;;;;;;;;351405;28;876;-78
2021/11/14 01:37:55;;;;;;;;;;;;;;;;;;351369;28;928;-78
2021/11/14 01:38:06;;;;;;;;;;;;;;;;;;351349;28;857;-78
2021/11/14 01:38:16;;;;;;;;;;;;;;;;;;351490;28;841;-78
2021/11/14 01:38:42;;;;;;;;;;;;;;;;;;351325;28;805;-78
2021/11/14 01:39:01;;;;;;;;;;;;;;;;;;349886;28;1255;-78
2021/11/14 01:39:12;;;;;;;;;;;;;;;;;;351380;28;844;-78
2021/11/14 01:39:22;;;;;;;;;;;;;;;;;;351311;28;856;-78
2021/11/14 01:39:33;;;;;;;;;;;;;;;;;;351365;28;813;-78
2021/11/14 01:39:49;;;;;;;;;;;;;;;;;;351256;28;896;-78
2021/11/14 01:40:20;;;;;;;;;;;;;;;;;;351383;28;975;-78
2021/11/14 01:40:35;;;;;;;;;;;;;;;;;;348541;28;1102;-78
2021/11/14 01:40:45;;;;;;;;;;;;;;;;;;348637;28;976;-78
2021/11/14 01:40:57;;;;;;;;;;;;;;;;;;348558;28;849;-78
2021/11/14 01:41:09;;;;;;;;;;;;;;;;;;348529;28;1007;-78
2021/11/14 01:41:20;;;;;;;;;;;;;;;;;;348490;28;1435;-78
2021/11/14 01:41:30;;;;;;;;;;;;;;;;;;348582;28;1185;-78
2021/11/14 01:41:41;;;;;;;;;;;;;;;;;;348492;28;1142;-78
2021/11/14 01:41:51;;;;;;;;;;;;;;;;;;348290;28;924;-78
2021/11/14 01:42:01;;;;;;;;;;;;;;;;;;348409;28;989;-78
2021/11/14 01:42:38;;;;;;;;;;;;;;;;;;347243;28;977;-78
2021/11/14 01:42:58;;;;;;;;;;;;;;;;;;347360;28;1011;-78
2021/11/14 01:43:40;;;;;;;;;;;;;;;;;;348566;28;841;-77
2021/11/14 01:43:52;;;;;;;;;;;;;;;;;;348541;28;825;-78
2021/11/14 01:44:04;;;;;;;;;;;;;;;;;;348461;28;1011;-78
2021/11/14 01:44:14;;;;;;;;;;;;;;;;;;348487;28;1424;-78
2021/11/14 01:44:25;;;;;;;;;;;;;;;;;;348333;28;995;-78
2021/11/14 01:45:01;;;;;;;;;;;;;;;;;;348412;28;956;-78
2021/11/14 01:45:12;;;;;;;;;;;;;;;;;;348518;28;580;-78
2021/11/14 01:45:37;;;;;;;;;;;;;;;;;;348503;28;960;-78
2021/11/14 01:45:48;;;;;;;;;;;;;;;;;;348601;28;967;-77
2021/11/14 01:46:40;;;;;;;;;;;;;;;;;;348635;28;995;-78
2021/11/14 01:46:51;;;;;;;;;;;;;;;;;;351426;28;848;-78
2021/11/14 01:47:01;;;;;;;;;;;;;;;;;;349811;28;892;-78
2021/11/14 01:47:12;;;;;;;;;;;;;;;;;;349890;28;936;-77
2021/11/14 01:48:18;;;;;;;;;;;;;;;;;;351368;28;1003;-78
2021/11/14 01:48:29;;;;;;;;;;;;;;;;;;351371;28;979;-78
2021/11/14 01:49:06;;;;;;;;;;;;;;;;;;352944;28;864;-78
2021/11/14 01:49:17;;;;;;;;;;;;;;;;;;352831;28;939;-78
2021/11/14 01:49:27;;;;;;;;;;;;;;;;;;352858;28;908;-78
2021/11/14 01:49:37;;;;;;;;;;;;;;;;;;352873;28;995;-78
2021/11/14 01:49:48;;;;;;;;;;;;;;;;;;352845;28;821;-78
2021/11/14 01:50:18;;;;;;;;;;;;;;;;;;352910;28;592;-78
2021/11/14 01:50:55;;;;;;;;;;;;;;;;;;352740;28;824;-78
2021/11/14 01:51:11;;;;;;;;;;;;;;;;;;352911;28;844;-78
2021/11/14 01:51:22;;;;;;;;;;;;;;;;;;352882;28;887;-78
2021/11/14 01:51:33;;;;;;;;;;;;;;;;;;351327;28;956;-78
2021/11/14 01:51:43;;;;;;;;;;;;;;;;;;351249;28;924;-78
2021/11/14 01:51:54;;;;;;;;;;;;;;;;;;351391;28;982;-78